Time;durP1;ratioP1;P1;durP2;ratioP2;P2;SDS_P1;SDS_P2;PMS_P1;PMS_P2;Temp;Humidity;BMP_temperature;BMP_pressure;BME280_temperature;BME280_humidity;BME280_pressure;Samples;Min_cycle;Max_cycle;Signal;HPM_P1;HPM_P2
2023/11/02 00:00:43;;;;;;;;;;;;;;;-144.99;100.00;52517.41;5114535;27;19977;-76
2023/11/02 00:03:10;;;;;;;;;;;;;;;-144.99;100.00;52562.25;5095612;27;20318;-76
2023/11/02 00:05:52;;;;;;;;;;;;;;;-144.99;100.00;52586.69;5112864;27;19924;-75
2023/11/02 00:08:20;;;;;;;;;;;;;;;-144.99;100.00;52586.69;5105438;27;19928;-75
2023/11/02 00:10:47;;;;;;;;;;;;;;;-144.99;100.00;52558.16;5111633;27;19924;-75
2023/11/02 00:13:17;;;;;;;;;;;;;;;-144.99;100.00;52545.94;5115068;27;19932;-75
2023/11/02 00:15:45;;;;;;;;;;;;;;;-144.99;100.00;52578.53;5113216;27;19996;-75
2023/11/02 00:18:11;;;;;;;;;;;;;;;-144.99;100.00;52574.47;5116453;27;19987;-74
2023/11/02 00:20:38;;;;;;;;;;;;;;;-144.99;100.00;52560.19;5105982;28;19931;-74
2023/11/02 00:23:05;;;;;;;;;;;;;;;-144.99;100.00;52586.69;5124945;28;20258;-75
2023/11/02 00:25:52;;;;;;;;;;;;;;;-144.99;100.00;52570.38;5112226;28;20022;-75
2023/11/02 00:28:18;;;;;;;;;;;;;;;-144.99;100.00;52554.09;5104756;28;19924;-76
2023/11/02 00:30:47;;;;;;;;;;;;;;;-144.99;100.00;52574.47;5113358;28;19955;-76
2023/11/02 00:33:14;;;;;;;;;;;;;;;-144.99;100.00;52570.38;5113711;28;19932;-76
2023/11/02 00:35:44;;;;;;;;;;;;;;;-144.99;100.00;52550.00;5114287;28;19997;-77
2023/11/02 00:38:11;;;;;;;;;;;;;;;-144.99;100.00;52578.53;5112670;27;20008;-77
2023/11/02 00:40:39;;;;;;;;;;;;;;;-144.99;100.00;52509.25;5111176;28;20022;-76
2023/11/02 00:43:08;;;;;;;;;;;;;;;-144.99;100.00;52552.03;5115204;28;20025;-79
2023/11/02 00:45:37;;;;;;;;;;;;;;;-144.99;100.00;52566.31;5112651;28;20387;-81
2023/11/02 00:48:04;;;;;;;;;;;;;;;-144.99;100.00;52574.47;5114271;27;19931;-76
2023/11/02 00:50:44;;;;;;;;;;;;;;;-144.99;100.00;52517.41;5104406;28;20404;-81
2023/11/02 00:53:11;;;;;;;;;;;;;;;-144.99;100.00;52541.84;5105419;28;20427;-77
2023/11/02 00:55:37;;;;;;;;;;;;;;;-144.99;100.00;52574.47;5110342;28;19962;-76
2023/11/02 00:58:08;;;;;;;;;;;;;;;-144.99;100.00;52558.16;5127338;27;20201;-78
2023/11/02 01:00:54;;;;;;;;;;;;;;;-144.99;100.00;52554.09;5113362;28;19924;-78
2023/11/02 01:03:21;;;;;;;;;;;;;;;-144.99;100.00;52558.16;5106679;27;19928;-77
2023/11/02 01:05:47;;;;;;;;;;;;;;;-144.99;100.00;52576.50;5108690;28;20331;-78
2023/11/02 01:08:14;;;;;;;;;;;;;;;-144.99;100.00;52552.03;5119749;27;19928;-78
2023/11/02 01:10:41;;;;;;;;;;;;;;;-144.99;100.00;52529.63;5106111;28;19924;-77
2023/11/02 01:13:09;;;;;;;;;;;;;;;-144.99;100.00;52574.47;5115679;27;19928;-78
2023/11/02 01:15:53;;;;;;;;;;;;;;;-144.99;100.00;52578.53;5106214;28;20291;-78
2023/11/02 01:18:22;;;;;;;;;;;;;;;-144.99;100.00;52558.16;5097019;28;19927;-77
2023/11/02 01:20:57;;;;;;;;;;;;;;;-144.99;100.00;52574.47;5104424;28;19927;-77
2023/11/02 01:23:24;;;;;;;;;;;;;;;-144.99;100.00;52576.50;5107543;27;19935;-78
2023/11/02 01:25:50;;;;;;;;;;;;;;;-144.99;100.00;52539.81;5114811;27;20416;-76
2023/11/02 01:28:18;;;;;;;;;;;;;;;-144.99;100.00;52554.09;5113699;28;20002;-77
2023/11/02 01:30:59;;;;;;;;;;;;;;;-144.99;100.00;52533.69;5129755;27;19943;-87
2023/11/02 01:33:53;;;;;;;;;;;;;;;-144.99;100.00;52529.63;5121217;28;19979;-82
2023/11/02 01:36:25;;;;;;;;;;;;;;;-144.99;100.00;52545.94;5099316;28;20040;-77
2023/11/02 01:38:55;;;;;;;;;;;;;;;-144.99;100.00;52529.63;5105092;28;20482;-77
2023/11/02 01:41:32;;;;;;;;;;;;;;;-144.99;100.00;52533.69;5114638;27;19930;-79
2023/11/02 01:44:03;;;;;;;;;;;;;;;-144.99;100.00;52558.16;5114784;27;19928;-77
2023/11/02 01:46:36;;;;;;;;;;;;;;;-144.99;100.00;52574.47;5119848;27;19938;-76
2023/11/02 01:49:07;;;;;;;;;;;;;;;-144.99;100.00;52562.25;5114463;27;20019;-77
2023/11/02 01:51:35;;;;;;;;;;;;;;;-144.99;100.00;52576.50;5113799;27;19935;-76
2023/11/02 01:54:06;;;;;;;;;;;;;;;-144.99;100.00;52545.94;5113925;27;19992;-76
2023/11/02 01:56:41;;;;;;;;;;;;;;;-144.99;100.00;52582.63;5116330;27;20018;-77
2023/11/02 01:59:14;;;;;;;;;;;;;;;-144.99;100.00;52590.78;5114543;27;19934;-77
2023/11/02 02:01:43;;;;;;;;;;;;;;;-144.99;100.00;52554.09;5116995;27;20014;-76
2023/11/02 02:04:16;;;;;;;;;;;;;;;-144.99;100.00;52570.38;5114844;27;19939;-77
2023/11/02 02:06:47;;;;;;;;;;;;;;;-144.99;100.00;52525.56;5125522;27;19978;-79
2023/11/02 02:09:19;;;;;;;;;;;;;;;-144.99;100.00;52554.09;5116868;27;20162;-76
2023/11/02 02:11:50;;;;;;;;;;;;;;;-144.99;100.00;52541.84;5119325;28;19924;-77
2023/11/02 02:14:23;;;;;;;;;;;;;;;-144.99;100.00;52592.81;5127733;27;20019;-77
2023/11/02 02:16:52;;;;;;;;;;;;;;;-144.99;100.00;52603.00;5123363;27;20022;-75
2023/11/02 02:19:34;;;;;;;;;;;;;;;-144.99;100.00;52592.81;5107710;28;20336;-77
2023/11/02 02:22:03;;;;;;;;;;;;;;;-144.99;100.00;52552.03;5116118;27;20456;-79
2023/11/02 02:24:37;;;;;;;;;;;;;;;-144.99;100.00;52582.63;5115513;27;19924;-77
2023/11/02 02:27:16;;;;;;;;;;;;;;;-144.99;100.00;52543.91;5120299;27;19931;-78
2023/11/02 02:30:02;;;;;;;;;;;;;;;-144.99;100.00;52607.09;5111015;28;20445;-77
2023/11/02 02:32:45;;;;;;;;;;;;;;;-144.99;100.00;52529.63;5114723;27;19941;-77
2023/11/02 02:35:15;;;;;;;;;;;;;;;-144.99;100.00;52568.34;5119563;27;20018;-77
2023/11/02 02:37:46;;;;;;;;;;;;;;;-144.99;100.00;52537.78;5115733;27;20263;-77
2023/11/02 02:40:16;;;;;;;;;;;;;;;-144.99;100.00;52562.25;5130759;27;20290;-79
2023/11/02 02:42:42;;;;;;;;;;;;;;;-144.99;100.00;52582.63;5117689;28;19963;-79
2023/11/02 02:45:09;;;;;;;;;;;;;;;-144.99;100.00;52554.09;5110695;28;20011;-80
2023/11/02 02:47:37;;;;;;;;;;;;;;;-144.99;100.00;52570.38;5119814;27;19932;-77
2023/11/02 02:50:04;;;;;;;;;;;;;;;-144.99;100.00;52574.47;5115748;27;19927;-78
2023/11/02 02:52:32;;;;;;;;;;;;;;;-144.99;100.00;52562.25;5115488;27;20040;-79
2023/11/02 02:55:00;;;;;;;;;;;;;;;-144.99;100.00;52574.47;5111533;27;20010;-78
2023/11/02 02:57:28;;;;;;;;;;;;;;;-144.99;100.00;52570.38;5103256;28;20010;-76
2023/11/02 02:59:55;;;;;;;;;;;;;;;-144.99;100.00;52578.53;5113870;27;20378;-76
2023/11/02 03:02:24;;;;;;;;;;;;;;;-144.99;100.00;52605.03;5111725;27;20018;-76
2023/11/02 03:04:51;;;;;;;;;;;;;;;-144.99;100.00;52566.31;5119798;27;20014;-73
2023/11/02 03:07:17;;;;;;;;;;;;;;;-144.99;100.00;52574.47;5111044;27;20004;-78
2023/11/02 03:09:49;;;;;;;;;;;;;;;-144.99;100.00;52582.63;5115802;27;20020;-79
2023/11/02 03:12:20;;;;;;;;;;;;;;;-144.99;100.00;52533.69;5117463;27;19943;-79
2023/11/02 03:14:48;;;;;;;;;;;;;;;-144.99;100.00;52578.53;5117017;27;19959;-79
2023/11/02 03:17:20;;;;;;;;;;;;;;;-144.99;100.00;52537.78;5118349;27;20423;-80
2023/11/02 03:19:48;;;;;;;;;;;;;;;-144.99;100.00;52529.63;5117574;27;19984;-80
2023/11/02 03:22:16;;;;;;;;;;;;;;;-144.99;100.00;52558.16;5120121;27;19935;-79
2023/11/02 03:24:47;;;;;;;;;;;;;;;-144.99;100.00;52545.94;5115500;27;19924;-76
2023/11/02 03:27:16;;;;;;;;;;;;;;;-144.99;100.00;52603.00;5121535;27;19924;-79
2023/11/02 03:29:47;;;;;;;;;;;;;;;-144.99;100.00;52617.28;5109124;28;19963;-81
2023/11/02 03:32:18;;;;;;;;;;;;;;;-144.99;100.00;52578.53;5123277;27;19924;-80
2023/11/02 03:34:48;;;;;;;;;;;;;;;-144.99;100.00;52566.31;5104636;27;19948;-81
2023/11/02 03:37:19;;;;;;;;;;;;;;;-144.99;100.00;52574.47;5114360;28;19927;-81
2023/11/02 03:39:59;;;;;;;;;;;;;;;-144.99;100.00;52586.69;5114536;27;19935;-80
2023/11/02 03:42:30;;;;;;;;;;;;;;;-144.99;100.00;52566.31;5113896;27;19963;-79
2023/11/02 03:45:03;;;;;;;;;;;;;;;-144.99;100.00;52572.44;5115940;27;20026;-80
2023/11/02 03:47:36;;;;;;;;;;;;;;;-144.99;100.00;52558.16;5123522;27;19971;-79
2023/11/02 03:50:09;;;;;;;;;;;;;;;-144.99;100.00;52550.00;5121199;27;19928;-79
2023/11/02 03:52:40;;;;;;;;;;;;;;;-144.99;100.00;52566.31;5107839;28;19978;-80
2023/11/02 03:55:15;;;;;;;;;;;;;;;-144.99;100.00;52554.09;5108773;28;19951;-78
2023/11/02 03:57:48;;;;;;;;;;;;;;;-144.99;100.00;52582.63;5119717;27;20022;-77
2023/11/02 04:00:17;;;;;;;;;;;;;;;-144.99;100.00;52570.38;5125200;27;19931;-81
2023/11/02 04:02:45;;;;;;;;;;;;;;;-144.99;100.00;52566.31;5138946;27;19933;-81
2023/11/02 04:05:13;;;;;;;;;;;;;;;-144.99;100.00;52554.09;5142275;27;19919;-82
2023/11/02 04:07:51;;;;;;;;;;;;;;;-144.99;100.00;52558.16;5129820;27;19927;-77
2023/11/02 04:10:22;;;;;;;;;;;;;;;-144.99;100.00;52529.63;5115495;28;19943;-80
2023/11/02 04:12:54;;;;;;;;;;;;;;;-144.99;100.00;52582.63;5138370;27;19949;-79
2023/11/02 04:15:20;;;;;;;;;;;;;;;-144.99;100.00;52562.25;5120224;28;20001;-79
2023/11/02 04:17:47;;;;;;;;;;;;;;;-144.99;100.00;52635.63;5130783;27;20074;-79
2023/11/02 04:20:14;;;;;;;;;;;;;;;-144.99;100.00;52570.38;5134455;27;19999;-79
2023/11/02 04:22:41;;;;;;;;;;;;;;;-144.99;100.00;52574.47;5140567;27;19912;-81
2023/11/02 04:25:08;;;;;;;;;;;;;;;-144.99;100.00;52613.19;5138145;28;19922;-82
2023/11/02 04:27:36;;;;;;;;;;;;;;;-144.99;100.00;52582.63;5137878;28;19911;-84
2023/11/02 04:30:02;;;;;;;;;;;;;;;-144.99;100.00;52578.53;5138923;27;19935;-80
2023/11/02 04:32:29;;;;;;;;;;;;;;;-144.99;100.00;52554.09;5098710;28;19959;-77
2023/11/02 04:34:56;;;;;;;;;;;;;;;-144.99;100.00;52570.38;5107818;28;20058;-78
2023/11/02 04:37:22;;;;;;;;;;;;;;;-144.99;100.00;52603.00;5109044;28;20013;-78
2023/11/02 04:39:49;;;;;;;;;;;;;;;-144.99;100.00;52566.31;5119777;28;20057;-77
2023/11/02 04:42:16;;;;;;;;;;;;;;;-144.99;100.00;52576.50;5107022;28;19975;-77
2023/11/02 04:44:44;;;;;;;;;;;;;;;-144.99;100.00;52582.63;5105410;28;19930;-75
2023/11/02 04:47:10;;;;;;;;;;;;;;;-144.99;100.00;52558.16;5117055;27;19954;-76
2023/11/02 04:49:37;;;;;;;;;;;;;;;-144.99;100.00;52592.81;5113203;28;19931;-76
2023/11/02 04:52:04;;;;;;;;;;;;;;;-144.99;100.00;52576.50;5117719;28;20378;-77
2023/11/02 04:54:31;;;;;;;;;;;;;;;-144.99;100.00;52598.94;5112629;28;19939;-78
2023/11/02 04:56:58;;;;;;;;;;;;;;;-144.99;100.00;52558.16;5114207;28;20449;-77
2023/11/02 04:59:24;;;;;;;;;;;;;;;-144.99;100.00;52590.78;5111397;28;20307;-78
2023/11/02 05:01:52;;;;;;;;;;;;;;;-144.99;100.00;52533.69;5105809;28;19931;-74
2023/11/02 05:04:18;;;;;;;;;;;;;;;-144.99;100.00;52570.38;5109594;28;20011;-77
2023/11/02 05:06:45;;;;;;;;;;;;;;;-144.99;100.00;52566.31;5103216;28;19950;-76
2023/11/02 05:09:11;;;;;;;;;;;;;;;-144.99;100.00;52566.31;5113942;28;19924;-78
2023/11/02 05:11:38;;;;;;;;;;;;;;;-144.99;100.00;52582.63;5107507;28;20027;-76
2023/11/02 05:14:04;;;;;;;;;;;;;;;-144.99;100.00;52570.38;5105890;28;19923;-76
2023/11/02 05:16:31;;;;;;;;;;;;;;;-144.99;100.00;52574.47;5115797;28;20468;-76
2023/11/02 05:18:58;;;;;;;;;;;;;;;-144.99;100.00;52562.25;5105175;28;21067;-76
2023/11/02 05:21:25;;;;;;;;;;;;;;;-144.99;100.00;52594.84;5110269;28;19932;-77
2023/11/02 05:23:51;;;;;;;;;;;;;;;-144.99;100.00;52562.25;5113082;28;20331;-75
2023/11/02 05:26:18;;;;;;;;;;;;;;;-144.99;100.00;52574.47;5106978;28;20026;-77
2023/11/02 05:28:45;;;;;;;;;;;;;;;-144.99;100.00;52556.13;5118376;27;19963;-76
2023/11/02 05:31:11;;;;;;;;;;;;;;;-144.99;100.00;52584.66;5111737;28;20371;-76
2023/11/02 05:33:37;;;;;;;;;;;;;;;-144.99;100.00;52598.94;5104691;28;19979;-76
2023/11/02 05:36:06;;;;;;;;;;;;;;;-144.99;100.00;52574.47;5108964;28;19924;-75
2023/11/02 05:38:32;;;;;;;;;;;;;;;-144.99;100.00;52570.38;5109741;28;20010;-77
2023/11/02 05:40:58;;;;;;;;;;;;;;;-144.99;100.00;52574.47;5110026;28;20467;-77
2023/11/02 05:43:24;;;;;;;;;;;;;;;-144.99;100.00;52590.78;5108580;28;19924;-77
2023/11/02 05:45:51;;;;;;;;;;;;;;;-144.99;100.00;52541.84;5111675;27;20017;-75
2023/11/02 05:48:17;;;;;;;;;;;;;;;-144.99;100.00;52537.78;5113845;27;19977;-76
2023/11/02 05:50:44;;;;;;;;;;;;;;;-144.99;100.00;52533.69;5120024;27;19923;-75
2023/11/02 05:53:11;;;;;;;;;;;;;;;-144.99;100.00;52562.25;5112938;27;19998;-76
2023/11/02 05:55:38;;;;;;;;;;;;;;;-144.99;100.00;52598.94;5122571;27;19966;-76
2023/11/02 05:58:04;;;;;;;;;;;;;;;-144.99;100.00;52590.78;5115467;27;19959;-77
2023/11/02 06:00:31;;;;;;;;;;;;;;;-144.99;100.00;52582.63;5123709;27;19999;-76
2023/11/02 06:02:57;;;;;;;;;;;;;;;-144.99;100.00;52566.31;5118587;27;19980;-77
2023/11/02 06:05:23;;;;;;;;;;;;;;;-144.99;100.00;52562.25;5110394;27;19994;-76
2023/11/02 06:07:50;;;;;;;;;;;;;;;-144.99;100.00;52582.63;5116479;27;19986;-74
2023/11/02 06:10:18;;;;;;;;;;;;;;;-144.99;100.00;52568.34;5106606;27;19970;-76
2023/11/02 06:12:44;;;;;;;;;;;;;;;-144.99;100.00;52570.38;5117085;27;19928;-77
2023/11/02 06:15:11;;;;;;;;;;;;;;;-144.99;100.00;52566.31;5115623;27;19975;-77
2023/11/02 06:17:37;;;;;;;;;;;;;;;-144.99;100.00;52576.50;5118598;27;20387;-77
2023/11/02 06:20:06;;;;;;;;;;;;;;;-144.99;100.00;52566.31;5117685;27;19923;-76
2023/11/02 06:22:32;;;;;;;;;;;;;;;-144.99;100.00;52529.63;5112487;27;20000;-78
2023/11/02 06:24:59;;;;;;;;;;;;;;;-144.99;100.00;52578.53;5120051;27;19923;-77
2023/11/02 06:27:27;;;;;;;;;;;;;;;-144.99;100.00;52564.28;5113940;27;20022;-78
2023/11/02 06:29:54;;;;;;;;;;;;;;;-144.99;100.00;52564.28;5114567;27;20008;-75
2023/11/02 06:32:21;;;;;;;;;;;;;;;-144.99;100.00;52566.31;5111286;27;19987;-76
2023/11/02 06:34:47;;;;;;;;;;;;;;;-144.99;100.00;52554.09;5120838;27;20338;-76
2023/11/02 06:37:18;;;;;;;;;;;;;;;-144.99;100.00;52574.47;5113021;27;19923;-77
2023/11/02 06:39:45;;;;;;;;;;;;;;;-144.99;100.00;52550.00;5109853;27;20359;-76
2023/11/02 06:42:12;;;;;;;;;;;;;;;-144.99;100.00;52562.25;5111159;27;19932;-77
2023/11/02 06:44:43;;;;;;;;;;;;;;;-144.99;100.00;52554.09;5119305;27;19977;-76
2023/11/02 06:47:09;;;;;;;;;;;;;;;-144.99;100.00;52590.78;5111289;27;20532;-76
2023/11/02 06:49:36;;;;;;;;;;;;;;;-144.99;100.00;52554.09;5113841;27;19928;-77
2023/11/02 06:52:02;;;;;;;;;;;;;;;-144.99;100.00;52533.69;5117020;27;20426;-77
2023/11/02 06:54:29;;;;;;;;;;;;;;;-144.99;100.00;52562.25;5111706;27;20406;-76
2023/11/02 06:56:55;;;;;;;;;;;;;;;-144.99;100.00;52578.53;5109152;27;20022;-76
2023/11/02 06:59:22;;;;;;;;;;;;;;;-144.99;100.00;52586.69;5114627;27;20362;-76
2023/11/02 07:01:52;;;;;;;;;;;;;;;-144.99;100.00;52558.16;5115317;27;20007;-76
2023/11/02 07:04:19;;;;;;;;;;;;;;;-144.99;100.00;52562.25;5113554;27;19971;-74
2023/11/02 07:06:46;;;;;;;;;;;;;;;-144.99;100.00;52578.53;5114772;27;19923;-76
2023/11/02 07:09:14;;;;;;;;;;;;;;;-144.99;100.00;52582.63;5118299;27;20042;-76
2023/11/02 07:11:40;;;;;;;;;;;;;;;-144.99;100.00;52578.53;5118840;27;19935;-76
2023/11/02 07:14:07;;;;;;;;;;;;;;;-144.99;100.00;52582.63;5108153;28;19924;-75
2023/11/02 07:16:33;;;;;;;;;;;;;;;-144.99;100.00;52545.94;5113276;27;19967;-76
2023/11/02 07:19:01;;;;;;;;;;;;;;;-144.99;100.00;52570.38;5119234;27;19923;-76
2023/11/02 07:21:27;;;;;;;;;;;;;;;-144.99;100.00;52590.78;5116397;27;19935;-76
2023/11/02 07:23:54;;;;;;;;;;;;;;;-144.99;100.00;52611.16;5113922;27;19923;-75
2023/11/02 07:26:20;;;;;;;;;;;;;;;-144.99;100.00;52554.09;5116432;27;20015;-76
2023/11/02 07:28:47;;;;;;;;;;;;;;;-144.99;100.00;52541.84;5111942;27;20366;-77
2023/11/02 07:31:13;;;;;;;;;;;;;;;-144.99;100.00;52537.78;5118316;27;20367;-76
2023/11/02 07:33:41;;;;;;;;;;;;;;;-144.99;100.00;52537.78;5113414;27;20220;-76
2023/11/02 07:36:11;;;;;;;;;;;;;;;-144.99;100.00;52562.25;5111120;27;19928;-76
2023/11/02 07:38:38;;;;;;;;;;;;;;;-144.99;100.00;52582.63;5112779;27;19923;-76
2023/11/02 07:41:06;;;;;;;;;;;;;;;-144.99;100.00;52543.91;5110233;28;19935;-77
2023/11/02 07:43:32;;;;;;;;;;;;;;;-144.99;100.00;52590.78;5119634;27;19927;-78
2023/11/02 07:45:58;;;;;;;;;;;;;;;-144.99;100.00;52574.47;5114257;27;20014;-77
2023/11/02 07:48:25;;;;;;;;;;;;;;;-144.99;100.00;52545.94;5115780;27;19924;-76
2023/11/02 07:50:51;;;;;;;;;;;;;;;-144.99;100.00;52558.16;5110714;27;20023;-74
2023/11/02 07:53:20;;;;;;;;;;;;;;;-144.99;100.00;52562.25;5118371;27;20034;-76
2023/11/02 07:55:47;;;;;;;;;;;;;;;-144.99;100.00;52537.78;5102496;28;19979;-76
2023/11/02 07:58:14;;;;;;;;;;;;;;;-144.99;100.00;52521.47;5120119;27;19974;-77
2023/11/02 08:00:40;;;;;;;;;;;;;;;-144.99;100.00;52525.56;5115747;27;19965;-77
2023/11/02 08:03:07;;;;;;;;;;;;;;;-144.99;100.00;52574.47;5110260;27;19953;-75
2023/11/02 08:05:33;;;;;;;;;;;;;;;-144.99;100.00;52558.16;5112863;27;20022;-76
2023/11/02 08:07:59;;;;;;;;;;;;;;;-144.99;100.00;52541.84;5116177;27;20002;-75
2023/11/02 08:10:30;;;;;;;;;;;;;;;-144.99;100.00;52562.25;5110755;28;19962;-76
2023/11/02 08:12:56;;;;;;;;;;;;;;;-144.99;100.00;52545.94;5116022;27;20409;-77
2023/11/02 08:15:22;;;;;;;;;;;;;;;-144.99;100.00;52537.78;5111518;27;19993;-78
2023/11/02 08:17:49;;;;;;;;;;;;;;;-144.99;100.00;52533.69;5120124;27;19951;-76
2023/11/02 08:20:15;;;;;;;;;;;;;;;-144.99;100.00;52562.25;5113359;27;20027;-76
2023/11/02 08:22:42;;;;;;;;;;;;;;;-144.99;100.00;52578.53;5115070;27;19928;-76
2023/11/02 08:25:09;;;;;;;;;;;;;;;-144.99;100.00;52545.94;5114552;28;19946;-76
2023/11/02 08:27:37;;;;;;;;;;;;;;;-144.99;100.00;52517.41;5116900;27;19924;-76
2023/11/02 08:30:05;;;;;;;;;;;;;;;-144.99;100.00;52558.16;5111316;28;20006;-76
2023/11/02 08:32:31;;;;;;;;;;;;;;;-144.99;100.00;52558.16;5114598;27;19924;-77
2023/11/02 08:34:59;;;;;;;;;;;;;;;-144.99;100.00;52531.66;5113058;28;19981;-76
2023/11/02 08:37:26;;;;;;;;;;;;;;;-144.99;100.00;52513.31;5093875;28;19992;-77
2023/11/02 08:39:52;;;;;;;;;;;;;;;-144.99;100.00;52529.63;5116414;28;19959;-76
2023/11/02 08:42:19;;;;;;;;;;;;;;;-144.99;100.00;52558.16;5109394;28;19976;-76
2023/11/02 08:44:47;;;;;;;;;;;;;;;-144.99;100.00;52545.94;5121610;28;19966;-78
2023/11/02 08:47:14;;;;;;;;;;;;;;;-144.99;100.00;52550.00;5119083;27;19924;-77
2023/11/02 08:49:41;;;;;;;;;;;;;;;-144.99;100.00;52574.47;5111554;28;20022;-78
2023/11/02 08:52:07;;;;;;;;;;;;;;;-144.99;100.00;52533.69;5114565;28;20015;-76
2023/11/02 08:54:34;;;;;;;;;;;;;;;-144.99;100.00;52552.03;5107043;28;19928;-75
2023/11/02 08:57:01;;;;;;;;;;;;;;;-144.99;100.00;52545.94;5116552;27;19934;-77
2023/11/02 08:59:27;;;;;;;;;;;;;;;-144.99;100.00;52545.94;5115004;28;19931;-78
2023/11/02 09:01:56;;;;;;;;;;;;;;;-144.99;100.00;52566.31;5112563;28;19991;-76
2023/11/02 09:04:22;;;;;;;;;;;;;;;-144.99;100.00;52574.47;5110842;28;19923;-77
2023/11/02 09:06:49;;;;;;;;;;;;;;;-144.99;100.00;52525.56;5108042;28;19943;-77
2023/11/02 09:09:15;;;;;;;;;;;;;;;-144.99;100.00;52562.25;5113332;28;19976;-77
2023/11/02 09:11:42;;;;;;;;;;;;;;;-144.99;100.00;52554.09;5112214;28;20251;-77
2023/11/02 09:14:08;;;;;;;;;;;;;;;-144.99;100.00;52574.47;5114657;28;19976;-77
2023/11/02 09:16:35;;;;;;;;;;;;;;;-144.99;100.00;52509.25;5111701;28;20042;-76
2023/11/02 09:19:03;;;;;;;;;;;;;;;-144.99;100.00;52554.09;5107258;28;19924;-77
2023/11/02 09:21:30;;;;;;;;;;;;;;;-144.99;99.60;52588.75;5112991;28;19935;-76
2023/11/02 09:23:58;;;;;;;;;;;;;;;-144.99;99.37;52578.53;5117765;27;19985;-76
2023/11/02 09:26:24;;;;;;;;;;;;;;;-144.99;99.05;52541.84;5111537;28;19924;-77
2023/11/02 09:28:51;;;;;;;;;;;;;;;-144.99;98.54;52556.13;5116212;27;20010;-77
2023/11/02 09:31:17;;;;;;;;;;;;;;;-144.99;98.40;52533.69;5103856;28;20302;-76
2023/11/02 09:33:43;;;;;;;;;;;;;;;-144.99;98.02;52521.47;5115407;27;19992;-78
2023/11/02 09:36:11;;;;;;;;;;;;;;;-144.99;97.60;52517.41;5120409;27;20010;-78
2023/11/02 09:38:38;;;;;;;;;;;;;;;-144.99;97.35;52576.50;5109904;27;20394;-77
2023/11/02 09:41:04;;;;;;;;;;;;;;;-144.99;97.10;52562.25;5105435;27;20309;-77
2023/11/02 09:43:32;;;;;;;;;;;;;;;-144.99;96.88;52572.44;5118584;27;19967;-76
2023/11/02 09:45:58;;;;;;;;;;;;;;;-144.99;96.36;52550.00;5097554;28;19928;-76
2023/11/02 09:48:25;;;;;;;;;;;;;;;-144.99;96.34;52578.53;5116310;27;19963;-76
2023/11/02 09:50:52;;;;;;;;;;;;;;;-144.99;95.96;52566.31;5111959;27;19995;-73
2023/11/02 09:53:19;;;;;;;;;;;;;;;-144.99;95.84;52545.94;5111349;28;20011;-75
2023/11/02 09:55:46;;;;;;;;;;;;;;;-144.99;95.53;52492.94;5115585;27;20015;-76
2023/11/02 09:58:17;;;;;;;;;;;;;;;-144.99;95.04;52598.94;5118802;27;20010;-78
2023/11/02 10:00:46;;;;;;;;;;;;;;;-144.99;94.88;52547.97;5117229;27;20268;-77
2023/11/02 10:03:12;;;;;;;;;;;;;;;-144.99;94.41;52539.81;5115618;27;20022;-78
2023/11/02 10:05:39;;;;;;;;;;;;;;;-144.99;94.43;52537.78;5118956;27;19938;-76
2023/11/02 10:08:05;;;;;;;;;;;;;;;-144.99;94.28;52545.94;5114928;27;19923;-77
2023/11/02 10:10:34;;;;;;;;;;;;;;;-144.99;94.29;52547.97;5120387;27;19938;-76
2023/11/02 10:13:00;;;;;;;;;;;;;;;-144.99;94.06;52529.63;5112021;28;20320;-78
2023/11/02 10:15:27;;;;;;;;;;;;;;;-144.99;93.72;52541.84;5114470;27;20026;-76
2023/11/02 10:17:53;;;;;;;;;;;;;;;-144.99;93.72;52521.47;5114337;27;20327;-74
2023/11/02 10:20:20;;;;;;;;;;;;;;;-144.99;93.34;52554.09;5116189;27;20013;-77
2023/11/02 10:22:57;;;;;;;;;;;;;;;-144.99;93.21;52550.00;5119033;27;19987;-77
2023/11/02 10:25:24;;;;;;;;;;;;;;;-144.99;92.41;52533.69;5122545;27;20366;-77
2023/11/02 10:27:52;;;;;;;;;;;;;;;-144.99;92.44;52537.78;5113811;27;20295;-77
2023/11/02 10:30:18;;;;;;;;;;;;;;;-144.99;92.28;52562.25;5108730;28;19924;-78
2023/11/02 10:32:45;;;;;;;;;;;;;;;-144.99;92.14;52562.25;5110392;28;19923;-76
2023/11/02 10:35:11;;;;;;;;;;;;;;;-144.99;92.26;52566.31;5118443;27;19932;-76
2023/11/02 10:37:38;;;;;;;;;;;;;;;-144.99;91.67;52539.81;5120018;27;19966;-77
2023/11/02 10:40:05;;;;;;;;;;;;;;;-144.99;91.70;52574.47;5111576;27;19928;-77
2023/11/02 10:42:32;;;;;;;;;;;;;;;-144.99;90.93;52554.09;5111393;28;20228;-75
2023/11/02 10:45:00;;;;;;;;;;;;;;;-144.99;90.75;52521.47;5120511;27;19935;-77
2023/11/02 10:47:29;;;;;;;;;;;;;;;-144.99;90.67;52550.00;5102211;28;19930;-76
2023/11/02 10:49:57;;;;;;;;;;;;;;;-144.99;90.81;52566.31;5117205;27;20375;-76
2023/11/02 10:52:28;;;;;;;;;;;;;;;-144.99;90.57;52588.75;5118306;27;20443;-77
2023/11/02 10:54:58;;;;;;;;;;;;;;;-144.99;90.35;52513.31;5112241;27;19992;-74
2023/11/02 10:57:25;;;;;;;;;;;;;;;-144.99;90.42;52541.84;5119681;27;19934;-77
2023/11/02 10:59:53;;;;;;;;;;;;;;;-144.99;90.49;52550.00;5117275;27;19988;-76
2023/11/02 11:02:21;;;;;;;;;;;;;;;-144.99;90.49;52550.00;5104520;28;19935;-77
2023/11/02 11:04:48;;;;;;;;;;;;;;;-144.99;89.93;52529.63;5117114;27;19930;-76
2023/11/02 11:07:15;;;;;;;;;;;;;;;-144.99;89.84;52537.78;5111263;27;20330;-73
2023/11/02 11:09:41;;;;;;;;;;;;;;;-144.99;89.89;52547.97;5116557;27;19928;-78
2023/11/02 11:12:08;;;;;;;;;;;;;;;-144.99;89.41;52525.56;5109250;22;20014;-73
2023/11/02 11:14:37;;;;;;;;;;;;;;;-144.99;88.96;52574.47;5088104;28;19924;-73
2023/11/02 11:17:04;;;;;;;;;;;;;;;-144.99;89.12;52562.25;5089575;28;19964;-73
2023/11/02 11:19:32;;;;;;;;;;;;;;;-144.99;88.72;52550.00;5090519;28;19932;-73
2023/11/02 11:22:01;;;;;;;;;;;;;;;-144.99;88.51;52537.78;5101961;28;19984;-73
2023/11/02 11:24:31;;;;;;;;;;;;;;;-144.99;88.53;52550.00;5101043;28;19924;-74
2023/11/02 11:26:58;;;;;;;;;;;;;;;-144.99;88.22;52509.25;5089524;28;20374;-73
2023/11/02 11:29:38;;;;;;;;;;;;;;;-144.99;87.94;52570.38;5101727;28;19927;-74
2023/11/02 11:32:05;;;;;;;;;;;;;;;-144.99;87.74;52513.31;5086478;28;19982;-74
2023/11/02 11:34:51;;;;;;;;;;;;;;;-144.99;87.62;52550.00;5091106;28;20065;-75
2023/11/02 11:37:35;;;;;;;;;;;;;;;-144.99;87.32;52541.84;5107654;28;19931;-76
2023/11/02 11:40:05;;;;;;;;;;;;;;;-144.99;87.38;52558.16;5100643;28;20291;-74
2023/11/02 11:42:50;;;;;;;;;;;;;;;-144.99;87.29;52517.41;5101600;28;20017;-74
2023/11/02 11:45:27;;;;;;;;;;;;;;;-144.99;86.88;52509.25;5100315;28;20014;-75
2023/11/02 11:47:54;;;;;;;;;;;;;;;-144.99;86.97;52521.47;5097103;28;19935;-74
2023/11/02 11:50:33;;;;;;;;;;;;;;;-144.99;86.14;52501.09;5099231;28;20264;-74
2023/11/02 11:53:15;;;;;;;;;;;;;;;-144.99;85.49;52488.84;5097833;28;19977;-74
2023/11/02 11:55:42;;;;;;;;;;;;;;;-144.99;84.43;52521.47;5096252;28;19959;-75
2023/11/02 11:58:09;;;;;;;;;;;;;;;-144.99;84.59;52488.84;5112839;28;19985;-75
2023/11/02 12:00:36;;;;;;;;;;;;;;;-144.99;83.37;52382.88;5102519;28;19924;-74
2023/11/02 12:03:05;;;;;;;;;;;;;;;-144.99;80.18;52391.03;5095893;28;20077;-73
2023/11/02 12:05:50;;;;;;;;;;;;;;;-144.99;77.90;52403.25;5088663;28;19932;-74
2023/11/02 12:08:18;;;;;;;;;;;;;;;-144.99;76.22;52399.19;5090453;28;19963;-74
2023/11/02 12:10:45;;;;;;;;;;;;;;;-144.99;76.67;52464.41;5097123;28;19999;-74
2023/11/02 12:13:13;;;;;;;;;;;;;;;-144.99;77.51;52458.28;5093122;28;19932;-74
2023/11/02 12:15:50;;;;;;;;;;;;;;;-144.99;78.84;52509.25;5103454;28;20011;-74
2023/11/02 12:18:18;;;;;;;;;;;;;;;-144.99;79.88;52437.91;5096388;28;20116;-75
2023/11/02 12:20:45;;;;;;;;;;;;;;;-144.99;80.89;52501.09;5097330;28;19946;-72
2023/11/02 12:23:12;;;;;;;;;;;;;;;-144.99;81.70;52509.25;5096894;28;19932;-76
2023/11/02 12:25:40;;;;;;;;;;;;;;;-144.99;82.57;52513.31;5103489;28;20019;-74
2023/11/02 12:28:12;;;;;;;;;;;;;;;-144.99;82.87;52484.78;5092619;28;20018;-74